Time;durP1;ratioP1;P1;durP2;ratioP2;P2;SDS_P1;SDS_P2;PMS_P1;PMS_P2;Temp;Humidity;BMP_temperature;BMP_pressure;BME280_temperature;BME280_humidity;BME280_pressure;Samples;Min_cycle;Max_cycle;Signal;HPM_P1;HPM_P2
2021/05/02 00:01:09;;;;;;;43.95;26.50;;;;;;;10.36;82.48;97561.98;125957;1102;21471;-79
2021/05/02 00:03:37;;;;;;;50.00;29.50;;;;;;;10.31;83.26;97548.31;125982;1101;22774;-79
2021/05/02 00:06:07;;;;;;;50.35;29.35;;;;;;;10.29;83.13;97547.73;126151;1101;22768;-79
2021/05/02 00:08:35;;;;;;;46.40;28.20;;;;;;;10.23;83.17;97541.46;126274;1101;23405;-79
2021/05/02 00:11:07;;;;;;;51.85;30.80;;;;;;;10.20;83.17;97528.41;126140;1102;22809;-79
2021/05/02 00:13:36;;;;;;;50.30;31.25;;;;;;;10.21;83.58;97524.59;126221;1096;25874;-79
2021/05/02 00:16:04;;;;;;;50.35;30.58;;;;;;;10.20;83.68;97522.97;126406;1101;22747;-79
2021/05/02 00:18:34;;;;;;;48.40;28.70;;;;;;;10.18;83.69;97515.06;126379;1101;22758;-79
2021/05/02 00:21:06;;;;;;;50.40;30.13;;;;;;;10.17;84.12;97502.53;126289;1101;22762;-79
2021/05/02 00:23:35;;;;;;;50.43;29.90;;;;;;;10.17;83.86;97496.28;126047;1101;22745;-79
2021/05/02 00:26:04;;;;;;;44.48;28.38;;;;;;;10.16;84.27;97490.00;126117;1102;22759;-79
2021/05/02 00:28:34;;;;;;;45.27;28.60;;;;;;;10.16;84.25;97478.31;125988;1102;24554;-79
2021/05/02 00:31:08;;;;;;;;;;;;;;;10.15;84.24;97463.91;126078;1101;23037;-79
2021/05/02 00:33:36;;;;;;;54.80;30.55;;;;;;;10.13;83.96;97462.52;126112;1102;21467;-79
2021/05/02 00:36:04;;;;;;;52.45;29.25;;;;;;;10.12;84.45;97469.87;126087;1101;24379;-79
2021/05/02 00:38:37;;;;;;;47.20;27.35;;;;;;;10.13;84.60;97465.23;126515;1101;22920;-79
2021/05/02 00:41:09;;;;;;;53.00;29.47;;;;;;;10.12;84.59;97452.73;126014;1101;22774;-79
2021/05/02 00:43:44;;;;;;;50.33;30.30;;;;;;;10.12;84.52;97450.83;125955;1102;22744;-79
2021/05/02 00:46:16;;;;;;;54.30;30.30;;;;;;;10.14;84.73;97453.28;125957;1102;22800;-79
2021/05/02 00:48:56;;;;;;;55.60;29.80;;;;;;;10.12;84.34;97450.02;126224;1102;22750;-79
2021/05/02 00:51:26;;;;;;;55.30;29.75;;;;;;;10.12;84.22;97450.83;126198;1101;22919;-79
2021/05/02 00:54:05;;;;;;;49.05;28.80;;;;;;;10.13;84.44;97455.19;126431;1097;27294;-79
2021/05/02 00:56:35;;;;;;;;;;;;;;;10.13;84.49;97463.35;126466;1101;23855;-79
2021/05/02 00:59:08;;;;;;;50.30;28.20;;;;;;;10.08;84.69;97458.70;126101;1102;24262;-79
2021/05/02 01:01:49;;;;;;;54.15;29.15;;;;;;;10.07;84.83;97459.80;126181;1104;22771;-79
2021/05/02 01:04:23;;;;;;;57.20;29.65;;;;;;;10.04;85.14;97465.77;126199;1102;22829;-79
2021/05/02 01:06:51;;;;;;;52.60;29.57;;;;;;;10.05;84.98;97463.86;126203;1096;22738;-79
2021/05/02 01:09:21;;;;;;;52.90;30.30;;;;;;;10.06;84.93;97452.72;126192;1102;22826;-79
2021/05/02 01:11:48;;;;;;;51.53;31.17;;;;;;;10.08;85.41;97447.02;126120;1101;22899;-79
2021/05/02 01:14:22;;;;;;;58.00;30.90;;;;;;;10.08;85.49;97445.09;126013;1102;22873;-79
2021/05/02 01:16:53;;;;;;;60.90;31.60;;;;;;;10.07;84.99;97440.77;126287;1101;22791;-79
2021/05/02 01:19:20;;;;;;;57.00;30.50;;;;;;;10.07;85.27;97431.77;125895;1096;23258;-79
2021/05/02 01:21:50;;;;;;;51.25;28.65;;;;;;;10.06;85.20;97432.86;125962;1103;25026;-79
2021/05/02 01:24:19;;;;;;;56.15;30.35;;;;;;;10.05;85.47;97423.05;126235;1101;22799;-79
2021/05/02 01:26:47;;;;;;;56.73;31.53;;;;;;;10.02;85.99;97413.55;125914;1102;22813;-79
2021/05/02 01:29:15;;;;;;;56.00;31.90;;;;;;;10.01;86.05;97406.45;126041;1097;27147;-79
2021/05/02 01:31:44;;;;;;;54.20;30.03;;;;;;;10.02;85.96;97397.22;125962;1096;23406;-79
2021/05/02 01:34:11;;;;;;;56.23;30.05;;;;;;;10.05;86.04;97390.41;126003;1097;22758;-79
2021/05/02 01:36:39;;;;;;;55.45;29.75;;;;;;;10.04;86.19;97389.61;125978;1101;22734;-79
2021/05/02 01:39:08;;;;;;;56.20;31.35;;;;;;;10.02;86.14;97383.63;126286;1101;23312;-79
2021/05/02 01:41:36;;;;;;;55.00;30.50;;;;;;;10.00;86.38;97383.05;126315;1097;25953;-79
2021/05/02 01:44:04;;;;;;;64.50;33.90;;;;;;;10.00;86.54;97371.36;125880;1101;22803;-79
2021/05/02 01:46:37;;;;;;;58.17;30.53;;;;;;;10.00;86.35;97355.84;126170;1101;22834;-79
2021/05/02 01:49:15;;;;;;;55.45;30.35;;;;;;;10.03;86.11;97333.56;126260;1101;22722;-79
2021/05/02 01:51:42;;;;;;;54.00;27.80;;;;;;;10.02;86.49;97328.38;126218;1097;22800;-79
2021/05/02 01:54:13;;;;;;;51.25;27.90;;;;;;;10.00;86.67;97333.28;126238;1101;22882;-79
2021/05/02 01:56:41;;;;;;;57.70;28.37;;;;;;;9.98;86.82;97325.39;126211;1096;27095;-79
2021/05/02 01:59:10;;;;;;;55.07;29.80;;;;;;;9.99;87.04;97324.31;126191;1101;22898;-79
2021/05/02 02:01:37;;;;;;;47.68;26.73;;;;;;;9.97;87.36;97312.89;126157;1101;23395;-79
2021/05/02 02:04:06;;;;;;;51.55;27.95;;;;;;;9.92;87.11;97299.28;126018;1096;27435;-79
2021/05/02 02:06:34;;;;;;;54.53;29.43;;;;;;;9.87;87.64;97296.55;126001;1102;22758;-79
2021/05/02 02:09:08;;;;;;;55.60;28.85;;;;;;;9.86;87.79;97303.90;126252;1097;27145;-79
2021/05/02 02:11:37;;;;;;;47.80;25.80;;;;;;;9.87;87.63;97285.67;126240;1101;22761;-79
2021/05/02 02:14:04;;;;;;;49.63;29.18;;;;;;;9.87;87.98;97277.52;126123;1102;22765;-79
2021/05/02 02:16:32;;;;;;;45.70;25.50;;;;;;;9.87;87.83;97261.20;126617;1101;22799;-79
2021/05/02 02:18:59;;;;;;;49.17;28.43;;;;;;;9.85;88.02;97263.38;126476;1101;22796;-79
2021/05/02 02:21:26;;;;;;;40.90;22.87;;;;;;;9.84;88.33;97267.17;126241;1102;22774;-79
2021/05/02 02:24:00;;;;;;;52.40;27.40;;;;;;;9.81;88.22;97270.42;126478;1101;22762;-79
2021/05/02 02:26:53;;;;;;;50.60;26.70;;;;;;;9.81;88.88;97267.70;126514;1101;22761;-79
2021/05/02 02:29:23;;;;;;;57.60;29.10;;;;;;;9.79;87.90;97270.72;126170;1101;23363;-79
2021/05/02 02:31:51;;;;;;;55.08;28.73;;;;;;;9.79;88.25;97272.59;126171;1101;22938;-79
2021/05/02 02:34:19;;;;;;;47.00;23.90;;;;;;;9.78;88.31;97244.60;125937;1102;22765;-79
2021/05/02 02:36:46;;;;;;;55.53;27.63;;;;;;;9.80;88.98;97241.62;125994;1102;22907;-79
2021/05/02 02:39:16;;;;;;;58.00;30.20;;;;;;;9.77;88.77;97250.30;126066;1101;24316;-79
2021/05/02 02:41:44;;;;;;;54.53;28.90;;;;;;;9.79;88.63;97245.41;126165;1101;22799;-79
2021/05/02 02:44:13;;;;;;;50.28;27.45;;;;;;;9.78;89.11;97244.60;126272;1101;22774;-79
2021/05/02 02:46:45;;;;;;;46.20;23.50;;;;;;;9.77;89.00;97236.71;126108;1096;22821;-79
2021/05/02 02:49:14;;;;;;;60.10;30.30;;;;;;;9.75;88.99;97242.41;126240;1101;23301;-79
2021/05/02 02:51:44;;;;;;;56.65;29.85;;;;;;;9.73;88.65;97241.88;126217;1101;22816;-79
2021/05/02 02:54:12;;;;;;;56.55;30.00;;;;;;;9.74;88.55;97238.08;126140;1101;22819;-79
2021/05/02 02:56:45;;;;;;;49.15;27.10;;;;;;;9.74;89.37;97232.64;126166;1101;22742;-79
2021/05/02 02:59:28;;;;;;;47.90;26.85;;;;;;;9.73;89.48;97219.31;126230;1101;22750;-79
2021/05/02 03:01:56;;;;;;;50.13;26.63;;;;;;;9.71;89.35;97205.19;126275;1101;22774;-79
2021/05/02 03:04:26;;;;;;;40.30;22.63;;;;;;;9.69;89.14;97208.97;126264;1101;22942;-79
2021/05/02 03:06:54;;;;;;;49.53;26.28;;;;;;;9.68;88.89;97188.33;125967;1101;22798;-79
2021/05/02 03:09:22;;;;;;;47.47;26.73;;;;;;;9.69;89.51;97183.70;126071;1102;22744;-79
2021/05/02 03:11:50;;;;;;;44.20;24.85;;;;;;;9.71;89.04;97169.84;126333;1101;22910;-79
2021/05/02 03:14:17;;;;;;;51.53;29.40;;;;;;;9.71;89.12;97165.22;126046;1095;26241;-79
2021/05/02 03:16:48;;;;;;;50.10;26.60;;;;;;;9.68;89.31;97155.71;126098;1101;22766;-79
2021/05/02 03:19:27;;;;;;;45.67;25.60;;;;;;;9.68;89.75;97147.55;125895;1102;22738;-79
2021/05/02 03:22:08;;;;;;;48.45;26.50;;;;;;;9.69;89.47;97141.02;126073;1101;22910;-79
2021/05/02 03:24:41;;;;;;;44.30;25.75;;;;;;;9.69;89.79;97135.58;125848;1101;22910;-79
2021/05/02 03:27:27;;;;;;;45.75;24.75;;;;;;;9.67;89.57;97128.80;125834;1096;22782;-79
2021/05/02 03:29:58;;;;;;;36.30;19.40;;;;;;;9.65;90.05;97125.51;126104;1101;22797;-79
2021/05/02 03:32:32;;;;;;;46.75;26.45;;;;;;;9.61;90.02;97122.52;126130;1096;22805;-79
2021/05/02 03:35:02;;;;;;;46.90;26.05;;;;;;;9.59;90.04;97111.11;125789;1096;27119;-79
2021/05/02 03:37:33;;;;;;;48.00;26.35;;;;;;;9.58;90.34;97101.34;125823;1101;22809;-79
2021/05/02 03:40:01;;;;;;;45.30;25.40;;;;;;;9.63;89.78;97108.66;126109;1096;22764;-79
2021/05/02 03:42:28;;;;;;;46.05;25.90;;;;;;;9.66;89.87;97105.41;126064;1101;22748;-79
2021/05/02 03:44:56;;;;;;;49.10;27.87;;;;;;;9.67;90.23;97107.86;126113;1096;22812;-79
2021/05/02 03:47:23;;;;;;;47.60;27.30;;;;;;;9.68;90.02;97116.81;126146;1096;26206;-79
2021/05/02 03:49:50;;;;;;;46.35;26.10;;;;;;;9.66;90.05;97108.93;126085;1101;22747;-79
2021/05/02 03:52:17;;;;;;;40.85;22.75;;;;;;;9.64;90.15;97099.44;125834;1101;22747;-79
2021/05/02 03:54:44;;;;;;;40.80;24.87;;;;;;;9.64;90.64;97092.08;125796;1103;22762;-79
2021/05/02 03:57:11;;;;;;;45.80;26.00;;;;;;;9.64;90.66;97092.08;126100;1101;22794;-79
2021/05/02 03:59:38;;;;;;;45.55;26.70;;;;;;;9.66;90.32;97098.06;125792;1096;27238;-79
2021/05/02 04:02:06;;;;;;;47.65;28.45;;;;;;;9.67;90.50;97105.14;125879;1102;22832;-79
2021/05/02 04:04:35;;;;;;;40.40;23.90;;;;;;;9.69;90.28;97100.23;126140;1101;22747;-79
2021/05/02 04:07:05;;;;;;;41.40;25.23;;;;;;;9.71;90.10;97096.45;125882;1102;22893;-79
2021/05/02 04:09:35;;;;;;;44.20;26.40;;;;;;;9.73;90.08;97099.70;125881;1101;22930;-79
2021/05/02 04:12:03;;;;;;;38.20;22.50;;;;;;;9.71;90.25;97088.29;126055;1101;24400;-79
2021/05/02 04:14:31;;;;;;;41.77;23.37;;;;;;;9.72;90.98;97077.14;125814;1101;22787;-79
2021/05/02 04:17:01;;;;;;;39.25;23.80;;;;;;;9.72;90.95;97068.99;125821;1096;26213;-79
2021/05/02 04:19:32;;;;;;;41.35;24.50;;;;;;;9.73;90.56;97067.89;125906;1102;22761;-79
2021/05/02 04:21:59;;;;;;;37.35;22.55;;;;;;;9.74;90.37;97069.53;126128;1097;25333;-79
2021/05/02 04:24:27;;;;;;;42.67;24.93;;;;;;;9.76;90.87;97053.75;125827;1096;22765;-79
2021/05/02 04:26:58;;;;;;;41.20;26.53;;;;;;;9.79;90.46;97057.81;126162;1101;22760;-79
2021/05/02 04:29:27;;;;;;;44.45;26.75;;;;;;;9.78;90.76;97058.92;126102;1101;22800;-79
2021/05/02 04:31:55;;;;;;;46.15;25.15;;;;;;;9.80;90.53;97056.73;125901;1101;22738;-79
2021/05/02 04:34:22;;;;;;;45.65;25.40;;;;;;;9.82;90.29;97057.27;125806;1102;22748;-79
2021/05/02 04:36:52;;;;;;;40.77;24.43;;;;;;;9.84;90.64;97052.38;125890;1102;24012;-79
2021/05/02 04:39:19;;;;;;;;;;;;;;;9.87;90.23;97047.20;125891;1101;22826;-79
2021/05/02 04:41:46;;;;;;;45.17;25.97;;;;;;;9.88;90.76;97048.03;126078;1101;21473;-79
2021/05/02 04:44:14;;;;;;;45.95;25.00;;;;;;;9.88;90.86;97048.84;126103;1101;22771;-79
2021/05/02 04:46:42;;;;;;;40.65;23.95;;;;;;;9.87;90.41;97035.52;125846;1097;26295;-79
2021/05/02 04:49:10;;;;;;;41.05;23.90;;;;;;;9.86;90.40;97039.31;125842;1097;27458;-79
2021/05/02 04:51:38;;;;;;;42.80;24.45;;;;;;;9.85;90.55;97034.98;126113;1101;22790;-79
2021/05/02 04:54:07;;;;;;;41.70;24.45;;;;;;;9.84;90.75;97042.33;125910;1096;22910;-79
2021/05/02 04:56:35;;;;;;;;;;;;;;;9.87;90.75;97038.23;125892;1104;24138;-79
2021/05/02 04:59:02;;;;;;;44.55;26.15;;;;;;;9.88;90.80;97046.12;126055;1102;21461;-79
2021/05/02 05:01:29;;;;;;;40.37;23.73;;;;;;;9.90;90.84;97045.84;126049;1101;22740;-79
2021/05/02 05:03:57;;;;;;;40.67;24.17;;;;;;;9.92;90.21;97043.66;126083;1097;22742;-79
2021/05/02 05:06:25;;;;;;;39.20;23.50;;;;;;;9.93;90.44;97044.47;126151;1101;24144;-79
2021/05/02 05:08:52;;;;;;;41.05;23.80;;;;;;;9.93;90.65;97052.63;125914;1096;26872;-79
2021/05/02 05:11:21;;;;;;;41.75;24.90;;;;;;;9.93;90.42;97055.34;126090;1101;22732;-79
2021/05/02 05:13:48;;;;;;;30.85;19.00;;;;;;;9.92;90.70;97059.17;126074;1096;27160;-79
2021/05/02 05:16:15;;;;;;;36.93;21.87;;;;;;;9.89;90.65;97065.95;126190;1097;25861;-79
2021/05/02 05:18:43;;;;;;;31.50;18.70;;;;;;;9.94;91.12;97062.42;126378;1101;23025;-79
2021/05/02 05:21:10;;;;;;;31.45;18.90;;;;;;;9.95;90.46;97069.48;126225;1101;22827;-79
2021/05/02 05:23:37;;;;;;;35.47;21.10;;;;;;;9.94;90.60;97062.42;126043;1103;22719;-79
2021/05/02 05:26:04;;;;;;;35.50;21.00;;;;;;;9.93;91.20;97060.78;126106;1101;22734;-80
2021/05/02 05:28:31;;;;;;;26.25;16.35;;;;;;;9.94;91.07;97055.08;125880;1096;22809;-80
2021/05/02 05:30:58;;;;;;;28.15;16.90;;;;;;;9.97;91.09;97045.53;125862;1097;25976;-80
2021/05/02 05:33:31;;;;;;;25.83;16.17;;;;;;;9.96;90.70;97033.85;126126;1101;22758;-80
2021/05/02 05:35:58;;;;;;;26.57;15.50;;;;;;;9.93;90.74;97018.08;125849;1096;22779;-80
2021/05/02 05:38:26;;;;;;;20.63;12.83;;;;;;;9.97;91.24;97012.91;125917;1096;26210;-79
2021/05/02 05:40:53;;;;;;;20.00;12.05;;;;;;;9.97;91.41;97010.19;126200;1101;23159;-79
2021/05/02 05:43:20;;;;;;;19.30;13.23;;;;;;;9.94;91.00;97011.56;125913;1101;22767;-79
2021/05/02 05:45:48;;;;;;;23.80;13.95;;;;;;;9.95;91.85;97009.65;126632;1096;25976;-79
2021/05/02 05:48:17;;;;;;;20.30;13.80;;;;;;;9.98;90.84;97009.11;126326;1102;22821;-79
2021/05/02 05:50:48;;;;;;;18.50;11.43;;;;;;;10.01;91.42;97009.37;126607;1096;24396;-80
2021/05/02 05:53:18;;;;;;;18.60;11.20;;;;;;;10.06;91.09;96998.47;126463;1097;23355;-80
2021/05/02 05:55:45;;;;;;;17.70;11.50;;;;;;;10.07;90.87;96993.84;126490;1097;22813;-79
2021/05/02 05:58:12;;;;;;;19.33;12.00;;;;;;;10.06;91.20;96995.75;126204;1097;22764;-80
2021/05/02 06:00:39;;;;;;;19.40;11.00;;;;;;;10.08;90.71;96987.31;126395;1096;22756;-80
2021/05/02 06:03:07;;;;;;;19.70;12.10;;;;;;;10.08;91.20;96979.97;126405;1101;22826;-80
2021/05/02 06:05:34;;;;;;;18.67;11.87;;;;;;;10.12;90.84;96971.25;126198;1096;27150;-80
2021/05/02 06:08:01;;;;;;;13.27;9.67;;;;;;;10.11;91.22;96964.17;126442;1101;23372;-80
2021/05/02 06:10:28;;;;;;;16.47;10.30;;;;;;;10.12;91.24;96968.53;126437;1101;22970;-79
2021/05/02 06:12:55;;;;;;;21.70;12.40;;;;;;;10.12;91.16;96987.58;126225;1096;22749;-80
2021/05/02 06:15:22;;;;;;;18.05;11.50;;;;;;;10.13;90.80;96981.86;126423;1101;22747;-80
2021/05/02 06:17:49;;;;;;;19.77;12.03;;;;;;;10.15;90.88;96987.83;126128;1096;26182;-80
2021/05/02 06:20:17;;;;;;;19.55;13.25;;;;;;;10.19;91.04;97002.49;126201;1096;22834;-80
2021/05/02 06:22:44;;;;;;;19.30;11.75;;;;;;;10.22;90.65;96996.50;126305;1102;22805;-80
2021/05/02 06:25:12;;;;;;;19.70;12.60;;;;;;;10.24;90.73;96998.95;126137;1096;26270;-80
2021/05/02 06:27:39;;;;;;;20.10;11.55;;;;;;;10.24;90.68;96977.19;126148;1101;22748;-80
2021/05/02 06:30:08;;;;;;;17.95;11.30;;;;;;;10.28;90.57;96986.41;126148;1101;24530;-79
2021/05/02 06:32:36;;;;;;;15.70;10.40;;;;;;;10.32;90.75;96992.94;126033;1103;22762;-79
2021/05/02 06:35:05;;;;;;;15.90;10.80;;;;;;;10.34;90.80;96971.73;126261;1101;22814;-79
2021/05/02 06:37:33;;;;;;;18.38;12.58;;;;;;;10.35;90.60;97005.99;126532;1101;22722;-79
2021/05/02 06:40:00;;;;;;;16.10;11.10;;;;;;;10.37;90.64;96978.50;125993;1101;22744;-79
2021/05/02 06:42:28;;;;;;;15.97;9.63;;;;;;;10.37;90.71;96973.87;126166;1095;26251;-79
2021/05/02 06:45:11;;;;;;;15.63;10.33;;;;;;;10.40;90.92;96958.91;126072;1101;22765;-79
2021/05/02 06:47:39;;;;;;;14.85;9.60;;;;;;;10.43;90.40;96950.19;126013;1102;22740;-79
2021/05/02 06:50:06;;;;;;;13.70;9.65;;;;;;;10.45;90.50;96918.86;126274;1101;24421;-79
2021/05/02 06:52:33;;;;;;;11.25;7.90;;;;;;;10.45;90.41;96879.95;126222;1101;22760;-79
2021/05/02 06:55:01;;;;;;;13.53;8.40;;;;;;;10.41;90.18;96829.89;126168;1101;23740;-79
2021/05/02 06:57:28;;;;;;;12.17;7.90;;;;;;;10.40;90.31;96804.59;125901;1095;26257;-79
2021/05/02 06:59:55;;;;;;;11.00;8.20;;;;;;;10.38;90.11;96787.75;126288;1101;24610;-79
2021/05/02 07:02:22;;;;;;;9.00;6.70;;;;;;;10.37;90.55;96763.54;126168;1096;22748;-79
2021/05/02 07:04:49;;;;;;;9.55;7.15;;;;;;;10.37;90.39;96750.73;125995;1102;23483;-79
2021/05/02 07:07:16;;;;;;;7.35;5.40;;;;;;;10.40;90.58;96749.37;126243;1096;26288;-79
2021/05/02 07:09:44;;;;;;;6.85;5.65;;;;;;;10.44;91.16;96758.58;125904;1101;22751;-78
2021/05/02 07:12:11;;;;;;;8.13;5.73;;;;;;;10.48;90.84;96766.98;125928;1096;22867;-78
2021/05/02 07:14:38;;;;;;;8.15;5.40;;;;;;;10.55;90.88;96784.63;126025;1102;23532;-78
2021/05/02 07:17:07;;;;;;;6.60;5.45;;;;;;;10.64;91.08;96793.78;125849;1101;22744;-78
2021/05/02 07:19:35;;;;;;;5.75;4.78;;;;;;;10.74;91.10;96798.30;126178;1096;22768;-78
2021/05/02 07:22:04;;;;;;;6.60;4.65;;;;;;;10.87;91.41;96801.45;126060;1096;22993;-78
2021/05/02 07:24:31;;;;;;;6.03;4.88;;;;;;;10.98;91.36;96792.09;126156;1101;22755;-78
2021/05/02 07:26:59;;;;;;;6.40;5.35;;;;;;;11.07;91.18;96779.46;126070;1101;22768;-78
2021/05/02 07:29:26;;;;;;;5.75;4.70;;;;;;;11.21;90.57;96782.31;126084;1101;22910;-78
2021/05/02 07:31:53;;;;;;;6.27;4.37;;;;;;;11.32;90.43;96796.63;126072;1101;24380;-78
2021/05/02 07:34:22;;;;;;;5.30;4.40;;;;;;;11.38;91.06;96789.99;126060;1101;22751;-78
2021/05/02 07:36:50;;;;;;;6.68;5.03;;;;;;;11.44;90.62;96783.39;126130;1096;27154;-78
2021/05/02 07:39:18;;;;;;;5.63;4.60;;;;;;;11.49;90.62;96790.67;125894;1101;22822;-78
2021/05/02 07:41:46;;;;;;;5.50;4.70;;;;;;;11.52;90.49;96777.27;126045;1101;25505;-78
2021/05/02 07:44:13;;;;;;;5.47;4.77;;;;;;;11.61;90.79;96784.81;125915;1102;22853;-80
2021/05/02 07:46:41;;;;;;;6.35;4.60;;;;;;;11.70;90.52;96772.13;125848;1101;22774;-78
2021/05/02 07:49:08;;;;;;;6.80;5.10;;;;;;;11.90;90.09;96760.98;125800;1101;22825;-78
2021/05/02 07:51:35;;;;;;;5.45;4.35;;;;;;;12.10;90.04;96756.31;125908;1101;22823;-78
2021/05/02 07:54:03;;;;;;;5.63;5.07;;;;;;;12.25;89.89;96757.98;126023;1102;22762;-78
2021/05/02 07:56:30;;;;;;;5.80;5.20;;;;;;;12.37;90.07;96746.61;126371;1096;23007;-79
2021/05/02 07:58:58;;;;;;;7.10;5.97;;;;;;;12.50;89.25;96754.84;125953;1102;22790;-79
2021/05/02 08:01:26;;;;;;;5.65;5.05;;;;;;;12.60;89.08;96753.03;126103;1101;22834;-79
2021/05/02 08:03:53;;;;;;;6.65;5.95;;;;;;;12.77;88.94;96752.47;126072;1101;22743;-79
2021/05/02 08:06:21;;;;;;;8.20;6.90;;;;;;;13.02;89.10;96738.31;125815;1102;22896;-79
2021/05/02 08:08:48;;;;;;;8.30;6.50;;;;;;;13.30;89.09;96738.31;125859;1102;22761;-79
2021/05/02 08:11:15;;;;;;;7.50;6.67;;;;;;;13.49;88.57;96746.41;126182;1101;22820;-79
2021/05/02 08:13:42;;;;;;;9.75;7.90;;;;;;;13.52;88.49;96745.80;125841;1102;22743;-79
2021/05/02 08:16:10;;;;;;;10.03;8.80;;;;;;;13.48;86.96;96748.34;125867;1096;25934;-79
2021/05/02 08:18:37;;;;;;;10.60;8.65;;;;;;;13.44;87.21;96744.61;125885;1096;22765;-79
2021/05/02 08:21:09;;;;;;;12.00;8.60;;;;;;;13.39;87.13;96735.71;125876;1101;22916;-79
2021/05/02 08:23:38;;;;;;;12.55;9.60;;;;;;;13.30;86.86;96744.59;125951;1095;26241;-80
2021/05/02 08:26:05;;;;;;;12.80;10.00;;;;;;;13.26;87.21;96734.55;126138;1096;22743;-80
2021/05/02 08:28:32;;;;;;;16.05;10.30;;;;;;;13.20;87.53;96725.66;126491;1101;22923;-80
2021/05/02 08:30:59;;;;;;;14.10;12.03;;;;;;;13.18;87.53;96738.02;126299;1101;24578;-80
2021/05/02 08:33:26;;;;;;;15.20;11.60;;;;;;;13.20;88.06;96743.98;126591;1096;26216;-80
2021/05/02 08:35:53;;;;;;;16.40;11.35;;;;;;;13.19;87.13;96726.78;126267;1101;22809;-80
2021/05/02 08:38:20;;;;;;;14.15;11.55;;;;;;;13.21;87.95;96738.22;126503;1101;22847;-80
2021/05/02 08:40:48;;;;;;;14.80;11.70;;;;;;;13.27;88.45;96747.92;126402;1101;22785;-80
2021/05/02 08:43:18;;;;;;;14.25;11.85;;;;;;;13.34;88.03;96750.28;126287;1096;26957;-80
2021/05/02 08:45:47;;;;;;;16.00;11.83;;;;;;;13.39;88.14;96741.17;126669;1101;22770;-80
2021/05/02 08:48:20;;;;;;;14.65;11.75;;;;;;;13.41;87.86;96736.20;126719;1101;22762;-80
2021/05/02 08:50:50;;;;;;;16.25;11.25;;;;;;;13.42;87.52;96737.81;126536;1096;27256;-80
2021/05/02 08:53:18;;;;;;;14.15;11.05;;;;;;;13.44;87.45;96739.14;126360;1101;22740;-80
2021/05/02 08:55:47;;;;;;;14.15;11.60;;;;;;;13.52;87.40;96739.53;126415;1096;22754;-80
2021/05/02 08:58:15;;;;;;;18.65;13.60;;;;;;;13.63;87.91;96740.92;126309;1096;23552;-80
2021/05/02 09:00:43;;;;;;;17.53;13.85;;;;;;;13.66;87.87;96735.64;126724;1095;22823;-80
2021/05/02 09:03:13;;;;;;;18.93;14.47;;;;;;;13.71;87.46;96739.41;126694;1101;22891;-80
2021/05/02 09:05:50;;;;;;;18.27;13.73;;;;;;;13.74;87.28;96739.59;126371;1101;22913;-80
2021/05/02 09:08:33;;;;;;;17.00;13.10;;;;;;;13.79;86.92;96744.13;126706;1101;22743;-80
2021/05/02 09:11:03;;;;;;;19.50;14.20;;;;;;;13.77;86.99;96744.42;126474;1096;22765;-80
2021/05/02 09:13:31;;;;;;;19.45;14.10;;;;;;;13.78;86.47;96743.32;126675;1101;22722;-80
2021/05/02 09:16:08;;;;;;;18.30;14.83;;;;;;;13.80;86.89;96737.55;126675;1101;22961;-80
2021/05/02 09:18:41;;;;;;;19.50;14.95;;;;;;;13.87;86.70;96729.72;126817;1103;22756;-80
2021/05/02 09:21:18;;;;;;;20.15;15.30;;;;;;;14.00;86.67;96722.58;126342;1101;22757;-80
2021/05/02 09:23:46;;;;;;;19.50;15.75;;;;;;;14.19;87.21;96725.94;126330;1101;22841;-80
2021/05/02 09:26:23;;;;;;;21.30;16.05;;;;;;;14.40;87.27;96739.14;126393;1101;22747;-80
2021/05/02 09:28:56;;;;;;;19.05;15.95;;;;;;;14.57;86.89;96738.42;126378;1096;26242;-80
2021/05/02 09:31:26;;;;;;;20.45;15.90;;;;;;;14.71;86.70;96730.95;126530;1103;22768;-80
2021/05/02 09:33:53;;;;;;;19.13;15.40;;;;;;;14.83;86.97;96735.86;126467;1101;22770;-80
2021/05/02 09:36:25;;;;;;;18.47;13.97;;;;;;;14.92;86.24;96752.34;126251;1101;22833;-80
2021/05/02 09:38:52;;;;;;;19.85;14.25;;;;;;;14.94;85.93;96753.66;126601;1095;26613;-79
2021/05/02 09:41:22;;;;;;;16.45;12.95;;;;;;;15.02;86.18;96748.53;126641;1101;22869;-79
2021/05/02 09:43:50;;;;;;;17.95;14.20;;;;;;;15.04;86.11;96755.30;126377;1101;23609;-79
2021/05/02 09:46:33;;;;;;;18.97;14.57;;;;;;;15.03;85.78;96761.09;126332;1096;26244;-79
2021/05/02 09:49:20;;;;;;;16.07;13.10;;;;;;;14.98;85.36;96760.13;126706;1096;22823;-79
2021/05/02 09:51:54;;;;;;;14.77;12.57;;;;;;;14.92;85.00;96755.09;126646;1095;26269;-79
2021/05/02 09:54:26;;;;;;;16.70;13.07;;;;;;;14.88;85.27;96773.30;126817;1101;23388;-80
2021/05/02 09:56:58;;;;;;;14.30;11.70;;;;;;;14.83;84.90;96798.09;126718;1101;23402;-79
2021/05/02 09:59:31;;;;;;;14.53;10.63;;;;;;;14.65;84.80;96830.86;126613;1096;22776;-80
2021/05/02 10:02:18;;;;;;;14.50;10.70;;;;;;;14.41;84.07;96831.95;126439;1096;23567;-80
2021/05/02 10:04:49;;;;;;;15.20;10.60;;;;;;;14.26;84.24;96847.92;126581;1101;22774;-80
2021/05/02 10:07:22;;;;;;;15.15;11.10;;;;;;;14.15;83.96;96848.14;126753;1101;24421;-80
2021/05/02 10:09:51;;;;;;;19.10;13.43;;;;;;;14.04;84.10;96855.77;126480;1102;22857;-80
2021/05/02 10:12:19;;;;;;;24.35;17.05;;;;;;;13.95;83.92;96854.05;126781;1101;22974;-80
2021/05/02 10:14:48;;;;;;;21.07;13.63;;;;;;;13.79;82.46;96843.45;126650;1101;22873;-80
2021/05/02 10:17:16;;;;;;;19.67;13.47;;;;;;;13.67;82.69;96845.89;126537;1101;22816;-80
2021/05/02 10:19:44;;;;;;;18.20;13.93;;;;;;;13.55;82.37;96864.73;126439;1094;26241;-80
2021/05/02 10:22:12;;;;;;;17.65;12.65;;;;;;;13.48;83.15;96865.13;126450;1096;26207;-80
2021/05/02 10:24:40;;;;;;;21.05;15.10;;;;;;;13.44;82.41;96862.19;126294;1102;22908;-81
2021/05/02 10:27:10;;;;;;;20.00;13.98;;;;;;;13.44;82.31;96856.72;126543;1101;23614;-80
2021/05/02 10:29:39;;;;;;;17.50;12.95;;;;;;;13.44;82.17;96864.13;126611;1101;22753;-80
2021/05/02 10:32:10;;;;;;;18.75;12.45;;;;;;;13.46;82.66;96872.83;126756;1101;22854;-80
2021/05/02 10:34:38;;;;;;;18.40;11.95;;;;;;;13.43;80.38;96874.23;126664;1101;22910;-80
2021/05/02 10:37:24;;;;;;;18.68;10.63;;;;;;;13.40;80.94;96872.13;126542;1096;26207;-80
2021/05/02 10:40:06;;;;;;;15.20;9.80;;;;;;;13.36;80.64;96879.29;126261;1101;22823;-79
2021/05/02 10:42:42;;;;;;;13.00;9.10;;;;;;;13.31;80.04;96884.84;125854;1101;22871;-79
2021/05/02 10:45:28;;;;;;;12.50;8.80;;;;;;;13.26;79.20;96902.14;126139;1101;22764;-79
2021/05/02 10:47:56;;;;;;;16.60;8.90;;;;;;;13.22;80.09;96886.63;126088;1096;27332;-79
2021/05/02 10:50:40;;;;;;;11.70;7.80;;;;;;;13.15;79.42;96903.41;125941;1101;22766;-80
2021/05/02 10:53:16;;;;;;;12.37;8.03;;;;;;;13.10;80.18;96900.77;126118;1101;24399;-80
2021/05/02 10:55:55;;;;;;;11.95;8.60;;;;;;;13.08;79.43;96908.45;126098;1101;22932;-79
2021/05/02 10:58:29;;;;;;;11.28;8.33;;;;;;;13.01;79.32;96922.50;125973;1102;22809;-80
2021/05/02 11:01:02;;;;;;;10.80;7.00;;;;;;;12.96;79.65;96939.00;126156;1101;22741;-79
2021/05/02 11:03:36;;;;;;;9.37;6.70;;;;;;;12.85;78.90;96940.26;126181;1096;27424;-79
2021/05/02 11:06:13;;;;;;;6.97;5.67;;;;;;;12.77;78.43;96944.48;125846;1101;24683;-79
2021/05/02 11:08:58;;;;;;;6.30;4.90;;;;;;;12.67;78.17;96950.89;125949;1096;22770;-79
2021/05/02 11:11:37;;;;;;;5.90;5.05;;;;;;;12.55;78.30;96966.91;126120;1101;22747;-78
2021/05/02 11:14:11;;;;;;;4.33;3.63;;;;;;;12.41;77.66;96968.75;126410;1101;24446;-79
2021/05/02 11:16:41;;;;;;;5.65;4.20;;;;;;;12.34;78.23;96990.94;125975;1096;27478;-78
2021/05/02 11:19:35;;;;;;;3.65;3.20;;;;;;;12.22;77.74;96991.38;125837;1101;22802;-78
2021/05/02 11:22:04;;;;;;;3.80;3.30;;;;;;;12.09;77.68;96984.72;125902;1096;26181;-78
2021/05/02 11:24:44;;;;;;;3.75;2.83;;;;;;;12.00;77.96;96989.17;126045;1101;22740;-78
2021/05/02 11:32:30;;;;;;;4.05;3.10;;;;;;;11.79;78.09;96999.45;126047;1101;22760;-78
2021/05/02 11:35:06;;;;;;;4.50;3.00;;;;;;;11.72;78.38;97018.08;125820;1096;25871;-78